Time;durP1;ratioP1;P1;durP2;ratioP2;P2;SDS_P1;SDS_P2;PMS_P1;PMS_P2;Temp;Humidity;BMP_temperature;BMP_pressure;BME280_temperature;BME280_humidity;BME280_pressure;Samples;Min_cycle;Max_cycle;Signal;HPM_P1;HPM_P2
2023/03/20 00:00:20;;;;;;;0.75;0.75;;;;;;;9.14;100.00;100505.97;5092979;28;20661;-70
2023/03/20 00:02:47;;;;;;;0.70;0.70;;;;;;;9.06;100.00;100506.63;5092750;28;20229;-69
2023/03/20 00:05:20;;;;;;;0.90;0.90;;;;;;;9.09;100.00;100504.13;5092685;28;20202;-69
2023/03/20 00:07:49;;;;;;;0.60;0.60;;;;;;;9.02;100.00;100500.50;5092103;28;20205;-70
2023/03/20 00:10:17;;;;;;;0.63;0.63;;;;;;;8.90;100.00;100501.00;5092362;28;20226;-69
2023/03/20 00:12:47;;;;;;;0.80;0.80;;;;;;;8.82;100.00;100493.84;5091966;28;20202;-69
2023/03/20 00:15:26;;;;;;;0.70;0.70;;;;;;;8.71;100.00;100487.50;5092447;28;20210;-69
2023/03/20 00:17:54;;;;;;;0.70;0.70;;;;;;;8.61;100.00;100501.88;5092699;28;20228;-69
2023/03/20 00:20:21;;;;;;;1.97;1.87;;;;;;;8.54;100.00;100499.06;5092226;28;20247;-68
2023/03/20 00:22:50;;;;;;;2.13;2.03;;;;;;;8.26;100.00;100464.63;5092230;28;20222;-68
2023/03/20 00:25:19;;;;;;;0.73;0.73;;;;;;;8.33;100.00;100496.72;5092018;28;20194;-69
2023/03/20 00:27:46;;;;;;;0.90;0.90;;;;;;;8.08;100.00;100470.94;5091639;28;20637;-70
2023/03/20 00:30:27;;;;;;;0.80;0.80;;;;;;;8.23;100.00;100492.06;5092307;28;20202;-69
2023/03/20 00:32:55;;;;;;;0.80;0.80;;;;;;;8.11;100.00;100484.81;5091474;28;20256;-69
2023/03/20 00:35:26;;;;;;;0.90;0.90;;;;;;;8.02;100.00;100469.03;5092013;28;20252;-70
2023/03/20 00:37:55;;;;;;;0.80;0.80;;;;;;;8.11;100.00;100477.06;5092090;28;20247;-69
2023/03/20 00:40:27;;;;;;;0.70;0.70;;;;;;;7.94;100.00;100442.97;5091031;28;20198;-70
2023/03/20 00:42:58;;;;;;;0.70;0.70;;;;;;;7.98;100.00;100455.16;5091536;28;20731;-70
2023/03/20 00:45:27;;;;;;;0.70;0.70;;;;;;;7.99;100.00;100469.81;5071926;28;20229;-69
2023/03/20 00:47:54;;;;;;;0.70;0.70;;;;;;;7.97;100.00;100468.00;5088531;28;20221;-70
2023/03/20 00:50:23;;;;;;;0.83;0.83;;;;;;;8.04;100.00;100464.78;5091580;28;20296;-69
2023/03/20 00:52:51;;;;;;;0.70;0.70;;;;;;;7.87;100.00;100445.31;5087986;28;20210;-70
2023/03/20 00:55:21;;;;;;;0.80;0.80;;;;;;;8.01;100.00;100456.06;5075497;28;20221;-69
2023/03/20 00:57:51;;;;;;;0.80;0.80;;;;;;;7.91;100.00;100457.50;5091216;28;20194;-70
2023/03/20 01:00:24;;;;;;;1.40;1.40;;;;;;;7.76;100.00;100431.19;5072118;28;20203;-70
2023/03/20 01:02:53;;;;;;;0.60;0.60;;;;;;;7.80;100.00;100444.25;5091525;28;20245;-70
2023/03/20 01:05:20;;;;;;;0.80;0.80;;;;;;;7.68;100.00;100430.94;5091707;28;20290;-69
2023/03/20 01:07:48;;;;;;;0.77;0.77;;;;;;;7.69;100.00;100443.03;5091336;28;20204;-69
2023/03/20 01:10:16;;;;;;;0.70;0.70;;;;;;;7.51;100.00;100424.38;5091010;28;20197;-69
2023/03/20 01:12:46;;;;;;;0.80;0.80;;;;;;;7.48;100.00;100407.09;5091079;28;20202;-69
2023/03/20 01:15:19;;;;;;;0.63;0.63;;;;;;;7.71;100.00;100437.91;5091080;28;20206;-69
2023/03/20 01:17:46;;;;;;;0.80;0.80;;;;;;;7.67;100.00;100430.91;5091268;28;20198;-70
2023/03/20 01:20:19;;;;;;;0.87;0.87;;;;;;;7.69;100.00;100429.25;5091069;28;20229;-70
2023/03/20 01:22:46;;;;;;;0.80;0.80;;;;;;;7.48;100.00;100404.53;5076454;28;20291;-70
2023/03/20 01:25:13;;;;;;;0.80;0.80;;;;;;;7.59;100.00;100435.84;5091345;28;20198;-70
2023/03/20 01:27:40;;;;;;;0.80;0.80;;;;;;;7.56;100.00;100434.84;5090894;28;20209;-70
2023/03/20 01:30:19;;;;;;;0.80;0.80;;;;;;;7.59;100.00;100443.56;5090989;28;20197;-70
2023/03/20 01:32:47;;;;;;;0.60;0.60;;;;;;;7.48;100.00;100442.34;5074485;28;20197;-69
2023/03/20 01:35:15;;;;;;;1.57;1.47;;;;;;;7.39;100.00;100424.84;5090608;28;20190;-70
2023/03/20 01:37:43;;;;;;;0.80;0.80;;;;;;;7.40;100.00;100423.16;5090932;28;20233;-70
2023/03/20 01:40:29;;;;;;;0.80;0.80;;;;;;;7.31;100.00;100397.91;5090023;28;20198;-70
2023/03/20 01:42:56;;;;;;;0.80;0.80;;;;;;;7.48;100.00;100430.31;5090520;28;20221;-70
2023/03/20 01:45:30;;;;;;;0.60;0.60;;;;;;;7.38;100.00;100410.19;5039460;28;20201;-69
2023/03/20 01:47:57;;;;;;;0.60;0.60;;;;;;;7.45;100.00;100431.94;5091164;28;20194;-69
2023/03/20 01:50:30;;;;;;;0.67;0.67;;;;;;;7.49;100.00;100426.88;5090654;28;20197;-70
2023/03/20 01:53:04;;;;;;;0.70;0.70;;;;;;;7.57;100.00;100434.00;5090224;28;20262;-70
2023/03/20 01:55:32;;;;;;;0.80;0.80;;;;;;;7.54;100.00;100426.16;5091107;28;20197;-70
2023/03/20 01:58:03;;;;;;;0.90;0.90;;;;;;;7.55;100.00;100425.34;5090779;28;20542;-69
2023/03/20 02:00:32;;;;;;;0.90;0.90;;;;;;;7.54;100.00;100418.44;5090668;28;20205;-70
2023/03/20 02:02:59;;;;;;;0.87;0.87;;;;;;;7.48;100.00;100422.59;5084292;28;20223;-70
2023/03/20 02:05:27;;;;;;;0.60;0.60;;;;;;;7.41;100.00;100405.16;5070821;28;20206;-70
2023/03/20 02:08:10;;;;;;;0.80;0.80;;;;;;;7.50;100.00;100422.63;5084496;28;20202;-70
2023/03/20 02:10:37;;;;;;;0.67;0.67;;;;;;;7.40;100.00;100426.59;5090144;28;20206;-70
2023/03/20 02:13:05;;;;;;;0.63;0.63;;;;;;;7.39;100.00;100418.81;5090750;28;20202;-70
2023/03/20 02:15:34;;;;;;;0.73;0.73;;;;;;;7.40;100.00;100425.72;5090267;28;20190;-70
2023/03/20 02:18:01;;;;;;;1.73;1.73;;;;;;;7.37;100.00;100431.66;5090812;28;20202;-68
2023/03/20 02:20:41;;;;;;;0.60;0.60;;;;;;;7.39;100.00;100427.41;5090445;28;20255;-70
2023/03/20 02:23:40;;;;;;;0.70;0.70;;;;;;;7.37;100.00;100434.25;5071832;28;20227;-69
2023/03/20 02:26:46;;;;;;;0.70;0.70;;;;;;;7.39;100.00;100429.13;5073306;28;20205;-70
2023/03/20 02:29:47;;;;;;;0.70;0.70;;;;;;;7.38;100.00;100424.81;5008380;28;20715;-69
2023/03/20 02:32:52;;;;;;;0.50;0.50;;;;;;;7.22;100.00;100399.31;5008135;28;20209;-70
2023/03/20 02:36:06;;;;;;;0.87;0.87;;;;;;;7.26;100.00;100421.81;5008713;28;20205;-69
2023/03/20 02:38:54;;;;;;;0.77;0.77;;;;;;;7.26;100.00;100421.81;4893495;29;20216;-70
2023/03/20 02:41:27;;;;;;;0.73;0.73;;;;;;;7.19;100.00;100420.72;4910677;29;20704;-69
2023/03/20 02:44:03;;;;;;;0.90;0.90;;;;;;;7.18;100.00;100415.50;4911866;29;20639;-70
2023/03/20 02:46:39;;;;;;;0.90;0.90;;;;;;;7.16;100.00;100419.75;4911550;29;21446;-69
2023/03/20 02:49:13;;;;;;;0.80;0.80;;;;;;;7.24;100.00;100408.00;4911675;29;20207;-70
2023/03/20 02:51:49;;;;;;;0.90;0.90;;;;;;;7.12;100.00;100405.00;4911840;29;20227;-70
2023/03/20 02:54:24;;;;;;;0.70;0.70;;;;;;;7.23;100.00;100427.75;4864898;29;20216;-69
2023/03/20 02:56:59;;;;;;;0.80;0.80;;;;;;;7.21;100.00;100421.66;4880344;29;20703;-69
2023/03/20 02:59:33;;;;;;;3.80;2.40;;;;;;;7.04;100.00;100403.84;4911730;29;20335;-69
2023/03/20 03:02:05;;;;;;;0.60;0.60;;;;;;;7.02;100.00;100408.97;4911874;29;20329;-69
2023/03/20 03:04:37;;;;;;;2.23;2.03;;;;;;;6.93;100.00;100401.78;4982386;28;20202;-70
2023/03/20 03:07:07;;;;;;;0.80;0.80;;;;;;;6.95;100.00;100405.31;4981214;28;20665;-70
2023/03/20 03:09:40;;;;;;;1.00;1.00;;;;;;;6.75;100.00;100370.22;4972920;28;20308;-70
2023/03/20 03:12:11;;;;;;;0.87;0.87;;;;;;;6.74;100.00;100377.94;4996061;28;20319;-71
2023/03/20 03:14:43;;;;;;;1.20;1.20;;;;;;;6.79;100.00;100395.28;5045918;28;20210;-69
2023/03/20 03:17:11;;;;;;;0.80;0.80;;;;;;;6.85;100.00;100395.50;4982513;28;20215;-70
2023/03/20 03:19:42;;;;;;;0.80;0.80;;;;;;;6.77;100.00;100388.34;5041718;28;20192;-70
2023/03/20 03:22:11;;;;;;;1.00;1.00;;;;;;;6.62;100.00;100368.06;5053712;28;20226;-70
2023/03/20 03:24:44;;;;;;;1.43;1.43;;;;;;;6.83;100.00;100392.00;5018458;28;20691;-70
2023/03/20 03:27:18;;;;;;;0.80;0.80;;;;;;;6.67;100.00;100375.97;5052515;28;20207;-70
2023/03/20 03:29:52;;;;;;;1.57;1.53;;;;;;;6.68;100.00;100375.13;5053122;28;20207;-70
2023/03/20 03:32:23;;;;;;;0.83;0.83;;;;;;;6.66;100.00;100394.81;5052768;28;20562;-69
2023/03/20 03:34:50;;;;;;;0.90;0.90;;;;;;;6.56;100.00;100393.63;5051690;28;20198;-68
2023/03/20 03:37:26;;;;;;;0.80;0.80;;;;;;;6.58;100.00;100394.53;5052992;28;20196;-70
2023/03/20 03:40:01;;;;;;;0.90;0.90;;;;;;;6.54;100.00;100378.91;5052761;28;20678;-70
2023/03/20 03:42:33;;;;;;;0.70;0.70;;;;;;;6.42;100.00;100372.50;5051570;28;20352;-69
2023/03/20 03:45:04;;;;;;;0.70;0.70;;;;;;;6.46;100.00;100386.34;5031728;28;20230;-69
2023/03/20 03:47:35;;;;;;;0.80;0.80;;;;;;;6.43;100.00;100381.09;5052470;28;20191;-70
2023/03/20 03:50:06;;;;;;;0.80;0.80;;;;;;;6.42;100.00;100381.94;5052842;28;20256;-70
2023/03/20 03:52:34;;;;;;;0.70;0.70;;;;;;;6.31;100.00;100371.22;5022929;28;20215;-70
2023/03/20 03:55:08;;;;;;;0.90;0.90;;;;;;;6.46;100.00;100401.81;4998390;28;20206;-70
2023/03/20 03:57:42;;;;;;;0.70;0.70;;;;;;;6.47;100.00;100393.25;5047989;28;20222;-70
2023/03/20 04:00:13;;;;;;;0.90;0.90;;;;;;;6.47;100.00;100396.72;5052265;28;20192;-69
2023/03/20 04:02:42;;;;;;;0.63;0.63;;;;;;;6.48;100.00;100395.91;5052244;28;20230;-70
2023/03/20 04:05:10;;;;;;;0.70;0.70;;;;;;;6.32;100.00;100374.69;5052419;28;20202;-70
2023/03/20 04:07:37;;;;;;;0.70;0.70;;;;;;;6.46;100.00;100401.81;5052336;28;20202;-70
2023/03/20 04:10:06;;;;;;;1.07;1.07;;;;;;;6.51;100.00;100399.41;5051805;28;20198;-69
2023/03/20 04:12:35;;;;;;;1.00;1.00;;;;;;;6.42;100.00;100389.66;5052029;28;20199;-70
2023/03/20 04:15:03;;;;;;;2.07;1.97;;;;;;;6.43;100.00;100410.31;5049708;28;20199;-70
2023/03/20 04:17:30;;;;;;;0.80;0.80;;;;;;;6.44;100.00;100401.75;5051227;28;20195;-69
2023/03/20 04:19:57;;;;;;;0.73;0.73;;;;;;;6.47;100.00;100404.44;5033009;28;20303;-70
2023/03/20 04:22:24;;;;;;;1.43;1.43;;;;;;;6.29;100.00;100383.19;5040598;28;20224;-70
2023/03/20 04:24:51;;;;;;;0.80;0.80;;;;;;;6.34;100.00;100388.50;5052504;28;20234;-70
2023/03/20 04:27:20;;;;;;;0.70;0.70;;;;;;;6.58;100.00;100407.41;5050304;28;20207;-70
2023/03/20 04:29:47;;;;;;;1.40;1.40;;;;;;;6.45;100.00;100405.22;5052142;28;20246;-70
2023/03/20 04:32:14;;;;;;;0.80;0.80;;;;;;;6.38;100.00;100390.38;5050404;28;20650;-70
2023/03/20 04:34:41;;;;;;;0.73;0.73;;;;;;;6.40;100.00;100402.47;5032362;28;20211;-70
2023/03/20 04:37:08;;;;;;;0.80;0.80;;;;;;;6.46;100.00;100407.84;5043272;28;20679;-70
2023/03/20 04:39:35;;;;;;;0.80;0.80;;;;;;;6.38;100.00;100393.81;5049157;28;20246;-70
2023/03/20 04:42:03;;;;;;;0.80;0.80;;;;;;;6.39;100.00;100405.84;5051764;28;20195;-69
2023/03/20 04:44:31;;;;;;;1.37;1.37;;;;;;;6.42;100.00;100410.28;5051721;28;20231;-70
2023/03/20 04:46:58;;;;;;;1.47;1.47;;;;;;;6.37;100.00;100415.25;5051401;28;20218;-70
2023/03/20 04:49:25;;;;;;;0.60;0.60;;;;;;;6.44;100.00;100426.63;5051132;28;20195;-70
2023/03/20 04:51:52;;;;;;;0.70;0.70;;;;;;;6.39;100.00;100395.56;5050772;28;20595;-70
2023/03/20 04:54:20;;;;;;;0.70;0.70;;;;;;;6.63;100.00;100426.50;5047785;28;20521;-70
2023/03/20 04:56:47;;;;;;;0.63;0.63;;;;;;;6.83;100.00;100429.78;5032450;28;20217;-70
2023/03/20 04:59:14;;;;;;;0.80;0.80;;;;;;;7.05;100.00;100421.97;5077372;28;20751;-70
2023/03/20 05:01:42;;;;;;;2.57;1.80;;;;;;;7.31;100.00;100436.59;5055905;28;20194;-70
2023/03/20 05:04:09;;;;;;;0.80;0.80;;;;;;;7.37;100.00;100439.41;5091565;28;20713;-71
2023/03/20 05:06:35;;;;;;;0.73;0.73;;;;;;;7.48;100.00;100444.91;5091807;28;20197;-69
2023/03/20 05:09:02;;;;;;;1.13;1.13;;;;;;;7.62;100.00;100445.38;5091282;28;20206;-70
2023/03/20 05:11:30;;;;;;;0.70;0.70;;;;;;;7.70;100.00;100438.75;5091769;28;20196;-70
2023/03/20 05:13:56;;;;;;;0.70;0.70;;;;;;;7.36;100.00;100360.25;5091101;28;20190;-70
2023/03/20 05:16:24;;;;;;;1.23;1.23;;;;;;;7.98;100.00;100436.22;5091523;28;20208;-69
2023/03/20 05:18:52;;;;;;;2.27;2.17;;;;;;;8.11;100.00;100451.25;5090844;28;20289;-70
2023/03/20 05:21:19;;;;;;;0.70;0.70;;;;;;;8.12;100.00;100442.66;5091520;28;20206;-70
2023/03/20 05:23:45;;;;;;;0.57;0.57;;;;;;;8.21;100.00;100448.09;5090660;28;20210;-70
2023/03/20 05:26:12;;;;;;;1.20;1.20;;;;;;;8.09;100.00;100452.91;5091210;28;20202;-71
2023/03/20 05:28:39;;;;;;;0.90;0.90;;;;;;;8.19;100.00;100454.06;5091193;28;20202;-69
2023/03/20 05:31:06;;;;;;;0.90;0.90;;;;;;;8.21;100.00;100427.44;5090781;28;20288;-70
2023/03/20 05:33:34;;;;;;;0.73;0.73;;;;;;;8.56;100.00;100450.91;5090905;28;20190;-70
2023/03/20 05:36:02;;;;;;;0.73;0.73;;;;;;;8.78;100.00;100453.25;5090713;28;20202;-70
2023/03/20 05:38:29;;;;;;;1.37;1.37;;;;;;;8.89;100.00;100449.25;5090368;28;20256;-70
2023/03/20 05:40:57;;;;;;;0.70;0.70;;;;;;;9.08;100.00;100455.78;5090019;28;20221;-70
2023/03/20 05:43:24;;;;;;;0.80;0.80;;;;;;;9.03;100.00;100434.97;5088854;28;20661;-71
2023/03/20 05:45:51;;;;;;;0.80;0.80;;;;;;;9.24;100.00;100466.59;5085966;28;20198;-70
2023/03/20 05:48:18;;;;;;;0.75;0.75;;;;;;;9.30;100.00;100471.94;5081678;28;20206;-71
2023/03/20 05:50:45;;;;;;;0.70;0.70;;;;;;;9.22;100.00;100468.25;5087691;28;20212;-70
2023/03/20 05:53:13;;;;;;;0.93;0.93;;;;;;;9.30;100.00;100471.94;5088596;28;20669;-70
2023/03/20 05:55:40;;;;;;;0.70;0.70;;;;;;;9.26;100.00;100467.50;5090476;28;20206;-71
2023/03/20 05:58:07;;;;;;;0.70;0.70;;;;;;;9.31;100.00;100473.66;5089021;28;20225;-72
2023/03/20 06:00:34;;;;;;;1.73;1.60;;;;;;;9.26;100.00;100459.75;5090605;28;20213;-70
2023/03/20 06:03:01;;;;;;;0.70;0.70;;;;;;;9.23;100.00;100470.03;5087905;28;20228;-71
2023/03/20 06:05:28;;;;;;;0.75;0.75;;;;;;;9.60;100.00;100460.59;5090273;28;20214;-70
2023/03/20 06:07:55;;;;;;;0.80;0.80;;;;;;;9.47;100.00;100443.88;5089649;28;20206;-70
2023/03/20 06:10:23;;;;;;;0.98;0.98;;;;;;;9.72;100.00;100476.44;5090632;28;20202;-71
2023/03/20 06:12:50;;;;;;;0.60;0.60;;;;;;;9.81;100.00;100476.69;5087394;28;20202;-69
2023/03/20 06:15:17;;;;;;;0.90;0.90;;;;;;;9.76;100.00;100455.84;5088984;28;20263;-70
2023/03/20 06:17:44;;;;;;;0.70;0.70;;;;;;;9.95;100.00;100481.31;5080494;28;20206;-70
2023/03/20 06:20:12;;;;;;;0.70;0.70;;;;;;;10.03;100.00;100488.41;5088696;28;20565;-72
2023/03/20 06:22:38;;;;;;;0.80;0.80;;;;;;;9.64;100.00;100488.31;5055259;28;20210;-72
2023/03/20 06:25:06;;;;;;;0.70;0.70;;;;;;;9.72;100.00;100494.56;5084991;28;20207;-72
2023/03/20 06:27:34;;;;;;;0.70;0.70;;;;;;;9.56;100.00;100495.03;5090645;28;20209;-72
2023/03/20 06:30:01;;;;;;;0.82;0.82;;;;;;;9.43;100.00;100484.34;5081957;28;20237;-72
2023/03/20 06:32:28;;;;;;;0.80;0.80;;;;;;;9.55;100.00;100490.69;5089786;28;20198;-72
2023/03/20 06:34:55;;;;;;;0.60;0.60;;;;;;;9.80;100.00;100493.03;5084041;28;20246;-72
2023/03/20 06:37:21;;;;;;;0.70;0.70;;;;;;;9.93;100.00;100474.38;5089860;28;20202;-72
2023/03/20 06:39:48;;;;;;;1.00;1.00;;;;;;;10.02;100.00;100486.66;5081344;28;20210;-71
2023/03/20 06:42:16;;;;;;;0.70;0.70;;;;;;;10.18;100.00;100481.03;5083369;28;20331;-71
2023/03/20 06:44:44;;;;;;;0.70;0.70;;;;;;;10.30;100.00;100473.53;5094017;28;20324;-72
2023/03/20 06:47:11;;;;;;;0.77;0.77;;;;;;;10.27;100.00;100463.97;5080086;28;20202;-71
2023/03/20 06:49:38;;;;;;;0.75;0.75;;;;;;;10.44;100.00;100477.31;5088064;28;20205;-70
2023/03/20 06:52:05;;;;;;;0.70;0.70;;;;;;;10.67;100.00;100485.56;5085745;28;20649;-77
2023/03/20 06:54:32;;;;;;;0.85;0.85;;;;;;;10.01;100.00;100459.88;5092009;28;20202;-67
2023/03/20 06:56:59;;;;;;;0.80;0.80;;;;;;;9.98;100.00;100493.50;5090556;28;20210;-70
2023/03/20 06:59:26;;;;;;;0.82;0.82;;;;;;;9.92;100.00;100501.09;5092072;28;20253;-70
2023/03/20 07:01:54;;;;;;;0.75;0.75;;;;;;;9.94;100.00;100502.91;5092371;28;20289;-70
2023/03/20 07:04:21;;;;;;;0.70;0.70;;;;;;;10.14;100.00;100503.41;5092306;28;20232;-70
2023/03/20 07:06:49;;;;;;;2.03;1.90;;;;;;;10.28;100.00;100507.19;5092960;28;20206;-70
2023/03/20 07:09:17;;;;;;;1.02;1.02;;;;;;;10.53;100.00;100513.78;5093506;28;20568;-71
2023/03/20 07:11:44;;;;;;;0.60;0.60;;;;;;;10.49;100.00;100504.19;5093182;28;20236;-70
2023/03/20 07:14:11;;;;;;;0.90;0.90;;;;;;;10.45;100.00;100492.03;5093355;28;20685;-70
2023/03/20 07:16:38;;;;;;;0.80;0.80;;;;;;;10.88;100.00;100501.56;5093241;28;20209;-69
2023/03/20 07:19:06;;;;;;;0.70;0.70;;;;;;;11.21;100.00;100502.22;5093330;28;20777;-71
2023/03/20 07:21:34;;;;;;;0.70;0.70;;;;;;;11.14;100.00;100505.56;5093270;28;20613;-70
2023/03/20 07:24:01;;;;;;;0.70;0.70;;;;;;;11.24;100.00;100504.88;5093117;28;20747;-71
2023/03/20 07:26:27;;;;;;;1.58;1.27;;;;;;;11.31;100.00;100470.41;5093108;28;20263;-71
2023/03/20 07:28:54;;;;;;;0.95;0.95;;;;;;;11.79;100.00;100504.19;5091984;28;20201;-72
2023/03/20 07:31:23;;;;;;;0.70;0.70;;;;;;;11.92;100.00;100497.47;5092963;28;20213;-75
2023/03/20 07:33:50;;;;;;;0.63;0.63;;;;;;;12.02;100.00;100495.91;5088171;28;20198;-76
2023/03/20 07:36:18;;;;;;;0.60;0.60;;;;;;;12.21;100.00;100467.59;5093061;28;20548;-74
2023/03/20 07:38:45;;;;;;;0.75;0.75;;;;;;;12.31;100.00;100477.28;5081264;28;20217;-71
2023/03/20 07:41:12;;;;;;;1.00;1.00;;;;;;;12.19;100.00;100502.22;5093010;28;20202;-73
2023/03/20 07:43:38;;;;;;;0.90;0.90;;;;;;;12.22;100.00;100484.06;5086949;28;20219;-74
2023/03/20 07:46:07;;;;;;;0.60;0.60;;;;;;;12.20;100.00;100498.78;5090618;28;20209;-73
2023/03/20 07:48:34;;;;;;;0.70;0.70;;;;;;;12.33;100.00;100488.59;5088164;28;20198;-74
2023/03/20 07:51:01;;;;;;;0.70;0.70;;;;;;;12.40;99.10;100490.41;5087328;28;20657;-74
2023/03/20 07:53:29;;;;;;;1.17;1.17;;;;;;;12.37;98.71;100490.38;5092270;28;20198;-74
2023/03/20 07:55:56;;;;;;;0.60;0.60;;;;;;;12.49;99.06;100496.56;5093098;28;20209;-69
2023/03/20 07:58:23;;;;;;;0.60;0.60;;;;;;;12.70;96.67;100489.09;5092330;28;20275;-69
2023/03/20 08:00:49;;;;;;;0.70;0.70;;;;;;;12.92;95.90;100491.06;5092302;28;20202;-69
2023/03/20 08:03:16;;;;;;;0.60;0.60;;;;;;;12.79;95.17;100478.78;5091905;28;20198;-70
2023/03/20 08:05:44;;;;;;;0.85;0.85;;;;;;;12.89;93.92;100491.94;5092216;28;20206;-70
2023/03/20 08:08:11;;;;;;;0.85;0.85;;;;;;;12.87;96.75;100495.38;5092620;28;20210;-70
2023/03/20 08:10:39;;;;;;;0.70;0.70;;;;;;;13.20;93.76;100497.50;5092183;28;20194;-71
2023/03/20 08:13:06;;;;;;;1.00;1.00;;;;;;;13.39;98.89;100495.13;5092084;28;20213;-70
2023/03/20 08:15:32;;;;;;;0.77;0.77;;;;;;;13.58;91.99;100500.53;5092423;28;20666;-69
2023/03/20 08:17:59;;;;;;;1.05;1.05;;;;;;;13.51;89.55;100503.94;5088571;28;20206;-69
2023/03/20 08:20:26;;;;;;;0.70;0.70;;;;;;;13.28;89.94;100499.34;5089273;28;20202;-69
2023/03/20 08:22:53;;;;;;;0.70;0.70;;;;;;;13.12;90.33;100494.84;5092795;28;20194;-70
2023/03/20 08:25:20;;;;;;;0.70;0.70;;;;;;;13.10;90.09;100514.75;5087414;28;20704;-71
2023/03/20 08:27:48;;;;;;;0.63;0.63;;;;;;;12.96;90.57;100513.69;5077966;28;20199;-70
2023/03/20 08:30:15;;;;;;;1.80;1.70;;;;;;;13.13;88.90;100506.97;5077527;28;20216;-70
2023/03/20 08:32:42;;;;;;;0.75;0.75;;;;;;;13.01;87.43;100512.03;5082051;28;20217;-68
2023/03/20 08:35:11;;;;;;;0.60;0.60;;;;;;;12.88;89.39;100515.31;5092409;28;20206;-70
2023/03/20 08:37:38;;;;;;;0.70;0.70;;;;;;;13.05;90.84;100512.94;5089166;28;20297;-70
2023/03/20 08:40:06;;;;;;;1.17;1.17;;;;;;;13.30;90.10;100515.00;5092409;28;20209;-70
2023/03/20 08:42:33;;;;;;;0.70;0.70;;;;;;;13.51;90.93;100511.75;5040184;28;20202;-69
2023/03/20 08:45:01;;;;;;;0.70;0.70;;;;;;;13.67;88.61;100516.22;5092542;28;20279;-69
2023/03/20 08:47:28;;;;;;;0.70;0.70;;;;;;;14.06;95.72;100500.94;5091744;28;20206;-69
2023/03/20 08:49:55;;;;;;;0.60;0.60;;;;;;;14.05;84.02;100480.94;5090766;28;20623;-68
2023/03/20 08:52:22;;;;;;;0.70;0.70;;;;;;;14.22;83.25;100501.91;5090219;28;20669;-68
2023/03/20 08:54:48;;;;;;;0.70;0.70;;;;;;;14.21;83.54;100494.94;5090633;28;20198;-68
2023/03/20 08:57:15;;;;;;;0.60;0.60;;;;;;;14.42;82.04;100494.25;5091804;28;20323;-68
2023/03/20 08:59:42;;;;;;;0.88;0.88;;;;;;;14.47;81.99;100480.38;5091697;28;20592;-69
2023/03/20 09:02:11;;;;;;;0.60;0.60;;;;;;;14.73;80.73;100478.75;5090977;28;20648;-69
2023/03/20 09:04:38;;;;;;;0.70;0.70;;;;;;;14.91;79.24;100474.50;5091156;28;20221;-69
2023/03/20 09:07:05;;;;;;;0.80;0.80;;;;;;;15.11;76.90;100484.13;5091260;28;20202;-68
2023/03/20 09:09:32;;;;;;;0.70;0.70;;;;;;;15.27;75.69;100479.81;5091518;28;20210;-69
2023/03/20 09:12:00;;;;;;;1.40;1.40;;;;;;;15.39;75.20;100467.66;5091832;28;20289;-68
2023/03/20 09:14:28;;;;;;;0.70;0.70;;;;;;;15.63;74.19;100476.41;5091560;28;20206;-69
2023/03/20 09:16:55;;;;;;;1.13;1.13;;;;;;;15.48;74.38;100452.88;5040289;28;20280;-69
2023/03/20 09:19:23;;;;;;;0.70;0.70;;;;;;;15.59;73.28;100483.38;5054119;28;20202;-69
2023/03/20 09:21:50;;;;;;;0.75;0.75;;;;;;;15.34;73.31;100435.41;5076978;28;20203;-69
2023/03/20 09:24:17;;;;;;;0.60;0.60;;;;;;;15.54;74.64;100473.81;5087569;28;20222;-69
2023/03/20 09:26:43;;;;;;;0.60;0.60;;;;;;;15.42;75.88;100473.75;5082176;28;20207;-68
2023/03/20 09:29:10;;;;;;;35.47;3.15;;;;;;;15.29;78.36;100478.97;5078625;28;20209;-69
2023/03/20 09:31:37;;;;;;;0.60;0.60;;;;;;;15.47;78.71;100478.13;5091127;28;20201;-71
2023/03/20 09:34:04;;;;;;;0.70;0.70;;;;;;;15.51;77.25;100476.41;5090939;28;20198;-70
2023/03/20 09:36:33;;;;;;;0.93;0.93;;;;;;;15.32;78.56;100472.88;5090940;28;20214;-70
2023/03/20 09:39:01;;;;;;;1.42;1.33;;;;;;;15.25;78.43;100451.09;5090889;28;20198;-69
2023/03/20 09:41:35;;;;;;;1.58;1.50;;;;;;;15.18;79.09;100469.34;5090912;28;20198;-69
2023/03/20 09:44:18;;;;;;;9.70;1.95;;;;;;;15.22;80.60;100469.38;5090998;28;20232;-69
2023/03/20 09:47:07;;;;;;;0.70;0.70;;;;;;;15.54;81.81;100465.97;5078488;28;20202;-70
2023/03/20 09:49:45;;;;;;;0.60;0.60;;;;;;;15.76;78.02;100462.50;5070695;28;20615;-69
2023/03/20 09:52:21;;;;;;;0.60;0.60;;;;;;;16.14;75.66;100465.94;5085510;28;20213;-70
2023/03/20 09:54:52;;;;;;;0.60;0.60;;;;;;;16.31;73.51;100458.06;5090625;28;20614;-71
2023/03/20 09:57:24;;;;;;;0.60;0.60;;;;;;;16.25;73.85;100445.88;5090524;28;20210;-68
2023/03/20 09:59:57;;;;;;;0.60;0.60;;;;;;;16.45;74.30;100450.16;5090875;28;20229;-67
2023/03/20 10:02:34;;;;;;;0.85;0.85;;;;;;;16.51;72.40;100448.44;5090974;28;20209;-68
2023/03/20 10:05:04;;;;;;;0.60;0.60;;;;;;;16.76;70.46;100436.16;5090694;28;20222;-69
2023/03/20 10:07:32;;;;;;;0.68;0.68;;;;;;;16.96;67.57;100446.50;5090394;28;20206;-70
2023/03/20 10:09:59;;;;;;;1.60;1.55;;;;;;;17.07;66.62;100436.84;5090790;28;20206;-69
2023/03/20 10:13:00;;;;;;;0.63;0.63;;;;;;;17.16;65.58;100437.66;5091850;28;20201;-69
2023/03/20 10:15:45;;;;;;;0.95;0.95;;;;;;;17.20;65.98;100442.00;5084632;28;20209;-70
2023/03/20 10:18:19;;;;;;;0.80;0.80;;;;;;;17.39;63.40;100426.16;5094416;28;20202;-68
2023/03/20 10:20:55;;;;;;;0.80;0.80;;;;;;;17.64;61.55;100448.72;5094631;28;20193;-69
2023/03/20 10:23:29;;;;;;;0.60;0.60;;;;;;;17.69;63.90;100436.47;5094381;28;20221;-71
2023/03/20 10:26:01;;;;;;;0.60;0.60;;;;;;;17.46;60.44;100439.22;5094566;28;20231;-69
2023/03/20 10:28:34;;;;;;;0.60;0.60;;;;;;;17.74;56.48;100439.91;5079841;28;20209;-70
2023/03/20 10:31:17;;;;;;;0.80;0.80;;;;;;;17.99;55.93;100430.94;5094261;28;20194;-70
2023/03/20 10:33:56;;;;;;;0.88;0.88;;;;;;;18.26;55.88;100432.41;5094402;28;20201;-70
2023/03/20 10:36:37;;;;;;;0.60;0.60;;;;;;;18.21;56.60;100373.84;5094359;28;20224;-70
2023/03/20 10:39:13;;;;;;;0.93;0.93;;;;;;;17.84;56.37;100418.81;5094449;28;20334;-70
2023/03/20 10:41:44;;;;;;;0.60;0.60;;;;;;;18.20;57.92;100425.47;5094343;28;20641;-70
2023/03/20 10:44:19;;;;;;;0.70;0.70;;;;;;;18.43;56.54;100412.09;5094336;28;20606;-70
2023/03/20 10:46:51;;;;;;;0.60;0.60;;;;;;;18.63;57.34;100409.25;5094174;28;20193;-68
2023/03/20 10:49:25;;;;;;;0.85;0.85;;;;;;;18.43;58.16;100411.22;5094089;28;20267;-68
2023/03/20 10:51:56;;;;;;;0.60;0.60;;;;;;;18.37;58.80;100400.78;5094428;28;20267;-69
2023/03/20 10:54:27;;;;;;;0.68;0.68;;;;;;;18.24;59.25;100411.41;5094231;28;20209;-70
2023/03/20 10:56:56;;;;;;;0.60;0.60;;;;;;;18.35;59.65;100403.44;5093921;28;20205;-69
2023/03/20 10:59:26;;;;;;;0.80;0.80;;;;;;;18.50;58.08;100402.38;5094004;28;20234;-69
2023/03/20 11:01:53;;;;;;;0.60;0.60;;;;;;;18.08;58.41;100404.59;5093734;28;20202;-68
2023/03/20 11:04:20;;;;;;;0.60;0.60;;;;;;;18.14;58.04;100396.66;5093790;28;20198;-68
2023/03/20 11:06:53;;;;;;;0.90;0.90;;;;;;;18.00;58.95;100392.44;5093980;28;20226;-68
2023/03/20 11:09:22;;;;;;;0.60;0.60;;;;;;;17.93;60.04;100382.88;5093954;28;20194;-68
2023/03/20 11:11:56;;;;;;;0.60;0.60;;;;;;;18.32;60.66;100379.84;5093788;28;20201;-71
2023/03/20 11:14:24;;;;;;;0.90;0.90;;;;;;;18.53;58.35;100378.72;5093646;28;20602;-70
2023/03/20 11:16:53;;;;;;;0.60;0.60;;;;;;;18.73;56.53;100379.34;5094118;28;20284;-70
2023/03/20 11:19:22;;;;;;;0.68;0.68;;;;;;;18.51;56.73;100370.91;5093708;28;20194;-70
2023/03/20 11:21:51;;;;;;;0.80;0.80;;;;;;;18.51;57.24;100356.88;5093767;28;20217;-70
2023/03/20 11:24:34;;;;;;;0.60;0.60;;;;;;;18.81;55.98;100351.22;5092997;28;20225;-70
2023/03/20 11:27:07;;;;;;;0.60;0.60;;;;;;;19.14;55.41;100366.50;5093755;28;20198;-70
2023/03/20 11:29:35;;;;;;;1.27;1.27;;;;;;;18.72;54.94;100331.22;5093828;28;20198;-70
2023/03/20 11:32:08;;;;;;;0.70;0.70;;;;;;;18.89;55.49;100358.97;5093605;28;20194;-70
2023/03/20 11:34:39;;;;;;;0.68;0.68;;;;;;;19.10;55.01;100342.88;5093575;28;20202;-70
2023/03/20 11:37:21;;;;;;;0.70;0.70;;;;;;;19.04;54.53;100328.09;5093266;28;20225;-70